sensor_id;sensor_type;location;lat;lon;timestamp;pressure;altitude;pressure_sealevel;temperature;humidity
73422;BME280;61637;47.760;-122.022;2023-06-05T00:00:01;102268.97799999999;;;20.1;unknown
73422;BME280;61637;47.760;-122.022;2023-06-05T00:02:01;102268.97799999999;;;20.1;unknown
73422;BME280;61637;47.760;-122.022;2023-06-05T00:04:01;102268.97799999999;;;20.1;unknown
73422;BME280;61637;47.760;-122.022;2023-06-05T00:06:01;102268.97799999999;;;20.1;unknown
73422;BME280;61637;47.760;-122.022;2023-06-05T00:08:01;102268.97799999999;;;20.1;unknown
73422;BME280;61637;47.760;-122.022;2023-06-05T00:10:01;102268.97799999999;;;20.1;unknown
73422;BME280;61637;47.760;-122.022;2023-06-05T00:12:01;102268.97799999999;;;20.1;unknown
73422;BME280;61637;47.760;-122.022;2023-06-05T00:14:01;102268.97799999999;;;20.1;unknown
73422;BME280;61637;47.760;-122.022;2023-06-05T00:16:01;102268.97799999999;;;20.2;unknown
73422;BME280;61637;47.760;-122.022;2023-06-05T00:18:01;102268.97799999999;;;20.2;unknown
73422;BME280;61637;47.760;-122.022;2023-06-05T00:20:01;102268.97799999999;;;20.3;unknown
73422;BME280;61637;47.760;-122.022;2023-06-05T00:22:01;102268.97799999999;;;20.2;unknown
73422;BME280;61637;47.760;-122.022;2023-06-05T00:24:01;102268.97799999999;;;20.1;unknown
73422;BME280;61637;47.760;-122.022;2023-06-05T00:26:01;102268.97799999999;;;19.9;unknown
73422;BME280;61637;47.760;-122.022;2023-06-05T00:28:01;102268.97799999999;;;20.1;unknown
73422;BME280;61637;47.760;-122.022;2023-06-05T00:30:01;102268.97799999999;;;20.1;unknown
73422;BME280;61637;47.760;-122.022;2023-06-05T00:32:01;102268.97799999999;;;20.1;unknown
73422;BME280;61637;47.760;-122.022;2023-06-05T00:34:01;102268.97799999999;;;20.2;unknown
73422;BME280;61637;47.760;-122.022;2023-06-05T00:36:01;102268.97799999999;;;20.2;unknown
73422;BME280;61637;47.760;-122.022;2023-06-05T00:38:01;102268.97799999999;;;20.1;unknown
73422;BME280;61637;47.760;-122.022;2023-06-05T00:40:01;102268.97799999999;;;20.1;unknown
73422;BME280;61637;47.760;-122.022;2023-06-05T00:42:01;102268.97799999999;;;19.9;unknown
73422;BME280;61637;47.760;-122.022;2023-06-05T00:44:01;102268.97799999999;;;19.9;unknown
73422;BME280;61637;47.760;-122.022;2023-06-05T00:46:02;102268.97799999999;;;19.8;unknown
73422;BME280;61637;47.760;-122.022;2023-06-05T00:48:01;102268.97799999999;;;19.8;unknown
73422;BME280;61637;47.760;-122.022;2023-06-05T00:50:01;102268.97799999999;;;19.7;unknown
73422;BME280;61637;47.760;-122.022;2023-06-05T00:52:01;102268.97799999999;;;19.6;unknown
73422;BME280;61637;47.760;-122.022;2023-06-05T00:54:01;102268.97799999999;;;19.6;unknown
73422;BME280;61637;47.760;-122.022;2023-06-05T00:56:01;102268.97799999999;;;19.6;unknown
73422;BME280;61637;47.760;-122.022;2023-06-05T00:58:01;102268.97799999999;;;19.7;unknown
73422;BME280;61637;47.760;-122.022;2023-06-05T01:00:01;102268.97799999999;;;19.7;unknown
73422;BME280;61637;47.760;-122.022;2023-06-05T01:02:01;102268.97799999999;;;19.8;unknown
73422;BME280;61637;47.760;-122.022;2023-06-05T01:04:01;102268.97799999999;;;19.8;unknown
73422;BME280;61637;47.760;-122.022;2023-06-05T01:06:01;102268.97799999999;;;19.9;unknown
73422;BME280;61637;47.760;-122.022;2023-06-05T01:08:01;102268.97799999999;;;20.0;unknown
73422;BME280;61637;47.760;-122.022;2023-06-05T01:10:01;102268.97799999999;;;19.9;unknown
73422;BME280;61637;47.760;-122.022;2023-06-05T01:12:03;102268.97799999999;;;19.9;unknown
73422;BME280;61637;47.760;-122.022;2023-06-05T01:14:02;102268.97799999999;;;19.9;unknown
73422;BME280;61637;47.760;-122.022;2023-06-05T01:16:01;102268.97799999999;;;20.1;unknown
73422;BME280;61637;47.760;-122.022;2023-06-05T01:18:01;102268.97799999999;;;20.2;unknown
73422;BME280;61637;47.760;-122.022;2023-06-05T01:20:01;102268.97799999999;;;20.3;unknown
73422;BME280;61637;47.760;-122.022;2023-06-05T01:22:01;102268.97799999999;;;20.2;unknown
73422;BME280;61637;47.760;-122.022;2023-06-05T01:24:01;102268.97799999999;;;20.1;unknown
73422;BME280;61637;47.760;-122.022;2023-06-05T01:26:01;102268.97799999999;;;19.8;unknown
73422;BME280;61637;47.760;-122.022;2023-06-05T01:28:03;102268.97799999999;;;19.4;unknown
73422;BME280;61637;47.760;-122.022;2023-06-05T01:30:01;102268.97799999999;;;19.2;unknown
73422;BME280;61637;47.760;-122.022;2023-06-05T01:32:02;102268.97799999999;;;19.1;unknown
73422;BME280;61637;47.760;-122.022;2023-06-05T01:34:02;102268.97799999999;;;18.9;unknown
73422;BME280;61637;47.760;-122.022;2023-06-05T01:36:01;102268.97799999999;;;18.8;unknown
73422;BME280;61637;47.760;-122.022;2023-06-05T01:38:01;102268.97799999999;;;18.6;unknown
73422;BME280;61637;47.760;-122.022;2023-06-05T01:40:01;102268.97799999999;;;18.4;unknown
73422;BME280;61637;47.760;-122.022;2023-06-05T01:42:01;102268.97799999999;;;18.2;unknown
73422;BME280;61637;47.760;-122.022;2023-06-05T01:44:01;102268.97799999999;;;18.1;unknown
73422;BME280;61637;47.760;-122.022;2023-06-05T01:46:01;102268.97799999999;;;17.9;unknown
73422;BME280;61637;47.760;-122.022;2023-06-05T01:48:01;102268.97799999999;;;17.7;unknown
73422;BME280;61637;47.760;-122.022;2023-06-05T01:50:01;102268.97799999999;;;17.6;unknown
73422;BME280;61637;47.760;-122.022;2023-06-05T01:52:01;102268.97799999999;;;17.4;unknown
73422;BME280;61637;47.760;-122.022;2023-06-05T01:54:01;102268.97799999999;;;17.3;unknown
73422;BME280;61637;47.760;-122.022;2023-06-05T01:56:01;102268.97799999999;;;17.2;unknown
73422;BME280;61637;47.760;-122.022;2023-06-05T01:58:01;102268.97799999999;;;17.1;unknown
73422;BME280;61637;47.760;-122.022;2023-06-05T02:00:01;102268.97799999999;;;17.1;unknown
73422;BME280;61637;47.760;-122.022;2023-06-05T02:02:01;102268.97799999999;;;17.0;unknown
73422;BME280;61637;47.760;-122.022;2023-06-05T02:04:01;102268.97799999999;;;16.9;unknown
73422;BME280;61637;47.760;-122.022;2023-06-05T02:06:01;102268.97799999999;;;16.8;unknown
73422;BME280;61637;47.760;-122.022;2023-06-05T02:08:01;102268.97799999999;;;16.7;unknown
73422;BME280;61637;47.760;-122.022;2023-06-05T02:10:01;102268.97799999999;;;16.7;unknown
73422;BME280;61637;47.760;-122.022;2023-06-05T02:12:01;102268.97799999999;;;16.6;unknown
73422;BME280;61637;47.760;-122.022;2023-06-05T02:14:01;102268.97799999999;;;16.5;unknown
73422;BME280;61637;47.760;-122.022;2023-06-05T02:16:01;102268.97799999999;;;16.4;unknown
73422;BME280;61637;47.760;-122.022;2023-06-05T02:18:01;102268.97799999999;;;16.3;unknown
73422;BME280;61637;47.760;-122.022;2023-06-05T02:20:01;102268.97799999999;;;16.3;unknown
73422;BME280;61637;47.760;-122.022;2023-06-05T02:22:01;102268.97799999999;;;16.3;unknown
73422;BME280;61637;47.760;-122.022;2023-06-05T02:24:01;102268.97799999999;;;16.2;unknown
73422;BME280;61637;47.760;-122.022;2023-06-05T02:26:01;102268.97799999999;;;16.2;unknown
73422;BME280;61637;47.760;-122.022;2023-06-05T02:28:01;102268.97799999999;;;16.1;unknown
73422;BME280;61637;47.760;-122.022;2023-06-05T02:30:01;102268.97799999999;;;16.1;unknown
73422;BME280;61637;47.760;-122.022;2023-06-05T02:32:01;102268.97799999999;;;16.0;unknown
73422;BME280;61637;47.760;-122.022;2023-06-05T02:34:01;102268.97799999999;;;15.9;unknown
73422;BME280;61637;47.760;-122.022;2023-06-05T02:36:01;102268.97799999999;;;15.9;unknown
73422;BME280;61637;47.760;-122.022;2023-06-05T02:38:01;102268.97799999999;;;15.8;unknown
73422;BME280;61637;47.760;-122.022;2023-06-05T02:40:01;102268.97799999999;;;15.7;unknown
73422;BME280;61637;47.760;-122.022;2023-06-05T02:42:01;102268.97799999999;;;15.7;unknown
73422;BME280;61637;47.760;-122.022;2023-06-05T02:44:01;102268.97799999999;;;15.6;unknown
73422;BME280;61637;47.760;-122.022;2023-06-05T02:46:01;102268.97799999999;;;15.6;unknown
73422;BME280;61637;47.760;-122.022;2023-06-05T02:48:01;102268.97799999999;;;15.6;unknown
73422;BME280;61637;47.760;-122.022;2023-06-05T02:50:01;102268.97799999999;;;15.5;unknown
73422;BME280;61637;47.760;-122.022;2023-06-05T02:52:01;102268.97799999999;;;15.4;unknown
73422;BME280;61637;47.760;-122.022;2023-06-05T02:54:01;102268.97799999999;;;15.4;unknown
73422;BME280;61637;47.760;-122.022;2023-06-05T02:56:01;102268.97799999999;;;15.3;unknown
73422;BME280;61637;47.760;-122.022;2023-06-05T02:58:01;102268.97799999999;;;15.3;unknown
73422;BME280;61637;47.760;-122.022;2023-06-05T03:00:01;102268.97799999999;;;15.2;unknown
73422;BME280;61637;47.760;-122.022;2023-06-05T03:02:02;102268.97799999999;;;15.2;unknown
73422;BME280;61637;47.760;-122.022;2023-06-05T03:04:01;102268.97799999999;;;15.1;unknown
73422;BME280;61637;47.760;-122.022;2023-06-05T03:06:01;102268.97799999999;;;15.0;unknown
73422;BME280;61637;47.760;-122.022;2023-06-05T03:08:01;102268.97799999999;;;14.9;unknown
73422;BME280;61637;47.760;-122.022;2023-06-05T03:10:01;102268.97799999999;;;14.9;unknown
73422;BME280;61637;47.760;-122.022;2023-06-05T03:12:01;102268.97799999999;;;14.8;unknown
73422;BME280;61637;47.760;-122.022;2023-06-05T03:14:01;102268.97799999999;;;14.7;unknown
73422;BME280;61637;47.760;-122.022;2023-06-05T03:16:01;102268.97799999999;;;14.7;unknown
73422;BME280;61637;47.760;-122.022;2023-06-05T03:18:01;102268.97799999999;;;14.7;unknown
73422;BME280;61637;47.760;-122.022;2023-06-05T03:20:01;102268.97799999999;;;14.6;unknown
73422;BME280;61637;47.760;-122.022;2023-06-05T03:22:01;102268.97799999999;;;14.6;unknown
73422;BME280;61637;47.760;-122.022;2023-06-05T03:24:01;102268.97799999999;;;14.5;unknown
73422;BME280;61637;47.760;-122.022;2023-06-05T03:26:01;102268.97799999999;;;14.4;unknown
73422;BME280;61637;47.760;-122.022;2023-06-05T03:28:01;102268.97799999999;;;14.3;unknown
73422;BME280;61637;47.760;-122.022;2023-06-05T03:30:01;102268.97799999999;;;14.3;unknown
73422;BME280;61637;47.760;-122.022;2023-06-05T03:32:01;102268.97799999999;;;14.2;unknown
73422;BME280;61637;47.760;-122.022;2023-06-05T03:34:01;102268.97799999999;;;14.1;unknown
73422;BME280;61637;47.760;-122.022;2023-06-05T03:36:01;102268.97799999999;;;14.0;unknown
73422;BME280;61637;47.760;-122.022;2023-06-05T03:38:01;102268.97799999999;;;14.0;unknown
73422;BME280;61637;47.760;-122.022;2023-06-05T03:40:01;102268.97799999999;;;13.9;unknown
73422;BME280;61637;47.760;-122.022;2023-06-05T03:42:01;102268.97799999999;;;13.9;unknown
73422;BME280;61637;47.760;-122.022;2023-06-05T03:44:01;102268.97799999999;;;13.8;unknown
73422;BME280;61637;47.760;-122.022;2023-06-05T03:46:01;102268.97799999999;;;13.7;unknown
73422;BME280;61637;47.760;-122.022;2023-06-05T03:48:01;102268.97799999999;;;13.7;unknown
73422;BME280;61637;47.760;-122.022;2023-06-05T03:50:01;102268.97799999999;;;13.6;unknown
73422;BME280;61637;47.760;-122.022;2023-06-05T03:52:01;102268.97799999999;;;13.5;unknown
73422;BME280;61637;47.760;-122.022;2023-06-05T03:54:01;102268.97799999999;;;13.4;unknown
73422;BME280;61637;47.760;-122.022;2023-06-05T03:56:01;102268.97799999999;;;13.4;unknown
73422;BME280;61637;47.760;-122.022;2023-06-05T03:58:01;102268.97799999999;;;13.3;unknown
73422;BME280;61637;47.760;-122.022;2023-06-05T04:00:01;102268.97799999999;;;13.2;unknown
73422;BME280;61637;47.760;-122.022;2023-06-05T04:02:01;102268.97799999999;;;13.1;unknown
73422;BME280;61637;47.760;-122.022;2023-06-05T04:04:01;102268.97799999999;;;13.1;unknown
73422;BME280;61637;47.760;-122.022;2023-06-05T04:06:01;102268.97799999999;;;12.9;unknown
73422;BME280;61637;47.760;-122.022;2023-06-05T04:08:01;102268.97799999999;;;12.9;unknown
73422;BME280;61637;47.760;-122.022;2023-06-05T04:10:01;102268.97799999999;;;12.9;unknown
73422;BME280;61637;47.760;-122.022;2023-06-05T04:12:01;102268.97799999999;;;12.8;unknown
73422;BME280;61637;47.760;-122.022;2023-06-05T04:14:01;102268.97799999999;;;12.8;unknown
73422;BME280;61637;47.760;-122.022;2023-06-05T04:16:01;102268.97799999999;;;12.7;unknown
73422;BME280;61637;47.760;-122.022;2023-06-05T04:18:01;102268.97799999999;;;12.7;unknown
73422;BME280;61637;47.760;-122.022;2023-06-05T04:20:01;102268.97799999999;;;12.6;unknown
73422;BME280;61637;47.760;-122.022;2023-06-05T04:22:01;102268.97799999999;;;12.6;unknown
73422;BME280;61637;47.760;-122.022;2023-06-05T04:24:01;102268.97799999999;;;12.5;unknown
73422;BME280;61637;47.760;-122.022;2023-06-05T04:26:02;102268.97799999999;;;12.4;unknown
73422;BME280;61637;47.760;-122.022;2023-06-05T04:28:01;102268.97799999999;;;12.4;unknown
73422;BME280;61637;47.760;-122.022;2023-06-05T04:30:01;102268.97799999999;;;12.3;unknown
73422;BME280;61637;47.760;-122.022;2023-06-05T04:32:01;102268.97799999999;;;12.3;unknown
73422;BME280;61637;47.760;-122.022;2023-06-05T04:34:01;102268.97799999999;;;12.2;unknown
73422;BME280;61637;47.760;-122.022;2023-06-05T04:36:01;102268.97799999999;;;12.2;unknown
73422;BME280;61637;47.760;-122.022;2023-06-05T04:38:01;102268.97799999999;;;12.1;unknown
73422;BME280;61637;47.760;-122.022;2023-06-05T04:40:01;102268.97799999999;;;12.1;unknown
73422;BME280;61637;47.760;-122.022;2023-06-05T04:42:01;102268.97799999999;;;12.0;unknown
73422;BME280;61637;47.760;-122.022;2023-06-05T04:44:01;102268.97799999999;;;11.9;unknown
73422;BME280;61637;47.760;-122.022;2023-06-05T04:46:01;102268.97799999999;;;11.9;unknown
73422;BME280;61637;47.760;-122.022;2023-06-05T04:48:01;102268.97799999999;;;11.9;unknown
73422;BME280;61637;47.760;-122.022;2023-06-05T04:50:01;102268.97799999999;;;11.8;unknown
73422;BME280;61637;47.760;-122.022;2023-06-05T04:52:01;102268.97799999999;;;11.8;unknown
73422;BME280;61637;47.760;-122.022;2023-06-05T04:54:01;102268.97799999999;;;11.7;unknown
73422;BME280;61637;47.760;-122.022;2023-06-05T04:56:01;102268.97799999999;;;11.7;unknown
73422;BME280;61637;47.760;-122.022;2023-06-05T04:58:01;102268.97799999999;;;11.6;unknown
73422;BME280;61637;47.760;-122.022;2023-06-05T05:00:01;102268.97799999999;;;11.6;unknown
73422;BME280;61637;47.760;-122.022;2023-06-05T05:02:01;102268.97799999999;;;11.5;unknown
73422;BME280;61637;47.760;-122.022;2023-06-05T05:04:01;102268.97799999999;;;11.4;unknown
73422;BME280;61637;47.760;-122.022;2023-06-05T05:06:01;102268.97799999999;;;11.4;unknown
73422;BME280;61637;47.760;-122.022;2023-06-05T05:08:01;102268.97799999999;;;11.3;unknown
73422;BME280;61637;47.760;-122.022;2023-06-05T05:10:01;102268.97799999999;;;11.3;unknown
73422;BME280;61637;47.760;-122.022;2023-06-05T05:12:01;102268.97799999999;;;11.2;unknown
73422;BME280;61637;47.760;-122.022;2023-06-05T05:14:01;102268.97799999999;;;11.2;unknown
73422;BME280;61637;47.760;-122.022;2023-06-05T05:16:01;102268.97799999999;;;11.1;unknown
73422;BME280;61637;47.760;-122.022;2023-06-05T05:18:01;102268.97799999999;;;11.1;unknown
73422;BME280;61637;47.760;-122.022;2023-06-05T05:20:01;102268.97799999999;;;10.9;unknown
73422;BME280;61637;47.760;-122.022;2023-06-05T05:22:01;102268.97799999999;;;10.9;unknown
73422;BME280;61637;47.760;-122.022;2023-06-05T05:24:01;102268.97799999999;;;10.8;unknown
73422;BME280;61637;47.760;-122.022;2023-06-05T05:26:01;102268.97799999999;;;10.8;unknown
73422;BME280;61637;47.760;-122.022;2023-06-05T05:28:01;102268.97799999999;;;10.7;unknown
73422;BME280;61637;47.760;-122.022;2023-06-05T05:30:01;102268.97799999999;;;10.7;unknown
73422;BME280;61637;47.760;-122.022;2023-06-05T05:32:01;102268.97799999999;;;10.6;unknown
73422;BME280;61637;47.760;-122.022;2023-06-05T05:34:01;102268.97799999999;;;10.5;unknown
73422;BME280;61637;47.760;-122.022;2023-06-05T05:36:01;102268.97799999999;;;10.5;unknown
73422;BME280;61637;47.760;-122.022;2023-06-05T05:38:01;102268.97799999999;;;10.4;unknown
73422;BME280;61637;47.760;-122.022;2023-06-05T05:40:01;102268.97799999999;;;10.4;unknown
73422;BME280;61637;47.760;-122.022;2023-06-05T05:42:01;102268.97799999999;;;10.3;unknown
73422;BME280;61637;47.760;-122.022;2023-06-05T05:44:01;102268.97799999999;;;10.3;unknown
73422;BME280;61637;47.760;-122.022;2023-06-05T05:46:01;102268.97799999999;;;10.3;unknown
73422;BME280;61637;47.760;-122.022;2023-06-05T05:48:01;102268.97799999999;;;10.2;unknown
73422;BME280;61637;47.760;-122.022;2023-06-05T05:50:01;102268.97799999999;;;10.2;unknown
73422;BME280;61637;47.760;-122.022;2023-06-05T05:52:01;102268.97799999999;;;10.2;unknown
73422;BME280;61637;47.760;-122.022;2023-06-05T05:54:01;102268.97799999999;;;10.1;unknown
73422;BME280;61637;47.760;-122.022;2023-06-05T05:56:01;102268.97799999999;;;10.1;unknown
73422;BME280;61637;47.760;-122.022;2023-06-05T05:58:01;102268.97799999999;;;10.0;unknown
73422;BME280;61637;47.760;-122.022;2023-06-05T06:00:01;102268.97799999999;;;9.9;unknown
73422;BME280;61637;47.760;-122.022;2023-06-05T06:02:01;102268.97799999999;;;9.9;unknown
73422;BME280;61637;47.760;-122.022;2023-06-05T06:04:01;102268.97799999999;;;9.8;unknown
73422;BME280;61637;47.760;-122.022;2023-06-05T06:06:01;102268.97799999999;;;9.8;unknown
73422;BME280;61637;47.760;-122.022;2023-06-05T06:08:01;102268.97799999999;;;9.8;unknown
73422;BME280;61637;47.760;-122.022;2023-06-05T06:10:01;102268.97799999999;;;9.7;unknown
73422;BME280;61637;47.760;-122.022;2023-06-05T06:12:01;102268.97799999999;;;9.7;unknown
73422;BME280;61637;47.760;-122.022;2023-06-05T06:14:01;102268.97799999999;;;9.7;unknown
73422;BME280;61637;47.760;-122.022;2023-06-05T06:16:01;102268.97799999999;;;9.7;unknown
73422;BME280;61637;47.760;-122.022;2023-06-05T06:18:01;102268.97799999999;;;9.6;unknown
73422;BME280;61637;47.760;-122.022;2023-06-05T06:20:01;102268.97799999999;;;9.6;unknown
73422;BME280;61637;47.760;-122.022;2023-06-05T06:22:01;102268.97799999999;;;9.6;unknown
73422;BME280;61637;47.760;-122.022;2023-06-05T06:24:01;102268.97799999999;;;9.5;unknown
73422;BME280;61637;47.760;-122.022;2023-06-05T06:26:01;102268.97799999999;;;9.5;unknown
73422;BME280;61637;47.760;-122.022;2023-06-05T06:28:01;102268.97799999999;;;9.4;unknown
73422;BME280;61637;47.760;-122.022;2023-06-05T06:30:01;102268.97799999999;;;9.4;unknown
73422;BME280;61637;47.760;-122.022;2023-06-05T06:32:01;102268.97799999999;;;9.4;unknown
73422;BME280;61637;47.760;-122.022;2023-06-05T06:34:01;102268.97799999999;;;9.4;unknown
73422;BME280;61637;47.760;-122.022;2023-06-05T06:36:01;102268.97799999999;;;9.3;unknown
73422;BME280;61637;47.760;-122.022;2023-06-05T06:38:01;102268.97799999999;;;9.4;unknown
73422;BME280;61637;47.760;-122.022;2023-06-05T06:40:01;102268.97799999999;;;9.3;unknown
73422;BME280;61637;47.760;-122.022;2023-06-05T06:42:01;102268.97799999999;;;9.3;unknown
73422;BME280;61637;47.760;-122.022;2023-06-05T06:44:01;102268.97799999999;;;9.3;unknown
73422;BME280;61637;47.760;-122.022;2023-06-05T06:46:01;102268.97799999999;;;9.3;unknown
73422;BME280;61637;47.760;-122.022;2023-06-05T06:48:01;102268.97799999999;;;9.2;unknown
73422;BME280;61637;47.760;-122.022;2023-06-05T06:50:01;102268.97799999999;;;9.2;unknown
73422;BME280;61637;47.760;-122.022;2023-06-05T06:52:01;102268.97799999999;;;9.2;unknown
73422;BME280;61637;47.760;-122.022;2023-06-05T06:54:01;102268.97799999999;;;9.1;unknown
73422;BME280;61637;47.760;-122.022;2023-06-05T06:56:01;102268.97799999999;;;9.1;unknown
73422;BME280;61637;47.760;-122.022;2023-06-05T06:58:01;102268.97799999999;;;9.1;unknown
73422;BME280;61637;47.760;-122.022;2023-06-05T07:00:01;102268.97799999999;;;9.0;unknown
73422;BME280;61637;47.760;-122.022;2023-06-05T07:02:09;102268.97799999999;;;8.9;unknown
73422;BME280;61637;47.760;-122.022;2023-06-05T07:04:01;102268.97799999999;;;8.9;unknown
73422;BME280;61637;47.760;-122.022;2023-06-05T07:06:01;102268.97799999999;;;8.9;unknown
73422;BME280;61637;47.760;-122.022;2023-06-05T07:08:01;102268.97799999999;;;8.9;unknown
73422;BME280;61637;47.760;-122.022;2023-06-05T07:10:01;102268.97799999999;;;8.9;unknown
73422;BME280;61637;47.760;-122.022;2023-06-05T07:12:01;102268.97799999999;;;8.8;unknown
73422;BME280;61637;47.760;-122.022;2023-06-05T07:14:01;102268.97799999999;;;8.8;unknown
73422;BME280;61637;47.760;-122.022;2023-06-05T07:16:01;102268.97799999999;;;8.8;unknown
73422;BME280;61637;47.760;-122.022;2023-06-05T07:18:01;102268.97799999999;;;8.8;unknown
73422;BME280;61637;47.760;-122.022;2023-06-05T07:20:01;102268.97799999999;;;8.7;unknown
73422;BME280;61637;47.760;-122.022;2023-06-05T07:22:01;102268.97799999999;;;8.7;unknown
73422;BME280;61637;47.760;-122.022;2023-06-05T07:24:01;102268.97799999999;;;8.7;unknown
73422;BME280;61637;47.760;-122.022;2023-06-05T07:26:01;102268.97799999999;;;8.7;unknown
73422;BME280;61637;47.760;-122.022;2023-06-05T07:28:01;102268.97799999999;;;8.6;unknown
73422;BME280;61637;47.760;-122.022;2023-06-05T07:30:01;102268.97799999999;;;8.6;unknown
73422;BME280;61637;47.760;-122.022;2023-06-05T07:32:01;102268.97799999999;;;8.6;unknown
73422;BME280;61637;47.760;-122.022;2023-06-05T07:34:01;102268.97799999999;;;8.6;unknown
73422;BME280;61637;47.760;-122.022;2023-06-05T07:36:01;102268.97799999999;;;8.6;unknown
73422;BME280;61637;47.760;-122.022;2023-06-05T07:38:01;102268.97799999999;;;8.5;unknown
73422;BME280;61637;47.760;-122.022;2023-06-05T07:40:01;102268.97799999999;;;8.5;unknown
73422;BME280;61637;47.760;-122.022;2023-06-05T07:42:01;102268.97799999999;;;8.4;unknown
73422;BME280;61637;47.760;-122.022;2023-06-05T07:44:01;102268.97799999999;;;8.4;unknown
73422;BME280;61637;47.760;-122.022;2023-06-05T07:46:01;102268.97799999999;;;8.4;unknown
73422;BME280;61637;47.760;-122.022;2023-06-05T07:48:01;102268.97799999999;;;8.4;unknown
73422;BME280;61637;47.760;-122.022;2023-06-05T07:50:01;102268.97799999999;;;8.4;unknown
73422;BME280;61637;47.760;-122.022;2023-06-05T07:52:01;102268.97799999999;;;8.4;unknown
73422;BME280;61637;47.760;-122.022;2023-06-05T07:54:01;102268.97799999999;;;8.3;unknown
73422;BME280;61637;47.760;-122.022;2023-06-05T07:56:01;102268.97799999999;;;8.3;unknown
73422;BME280;61637;47.760;-122.022;2023-06-05T07:58:01;102268.97799999999;;;8.3;unknown
73422;BME280;61637;47.760;-122.022;2023-06-05T08:00:01;102268.97799999999;;;8.3;unknown
73422;BME280;61637;47.760;-122.022;2023-06-05T08:02:01;102268.97799999999;;;8.3;unknown
73422;BME280;61637;47.760;-122.022;2023-06-05T08:04:01;102268.97799999999;;;8.3;unknown
73422;BME280;61637;47.760;-122.022;2023-06-05T08:06:01;102268.97799999999;;;8.3;unknown
73422;BME280;61637;47.760;-122.022;2023-06-05T08:08:01;102268.97799999999;;;8.3;unknown
73422;BME280;61637;47.760;-122.022;2023-06-05T08:10:01;102268.97799999999;;;8.2;unknown
73422;BME280;61637;47.760;-122.022;2023-06-05T08:12:01;102268.97799999999;;;8.2;unknown
73422;BME280;61637;47.760;-122.022;2023-06-05T08:14:01;102268.97799999999;;;8.2;unknown
73422;BME280;61637;47.760;-122.022;2023-06-05T08:16:01;102268.97799999999;;;8.2;unknown
73422;BME280;61637;47.760;-122.022;2023-06-05T08:18:01;102268.97799999999;;;8.2;unknown
73422;BME280;61637;47.760;-122.022;2023-06-05T08:20:01;102268.97799999999;;;8.2;unknown
73422;BME280;61637;47.760;-122.022;2023-06-05T08:22:01;102268.97799999999;;;8.2;unknown
73422;BME280;61637;47.760;-122.022;2023-06-05T08:24:01;102268.97799999999;;;8.2;unknown
73422;BME280;61637;47.760;-122.022;2023-06-05T08:26:01;102268.97799999999;;;8.2;unknown
73422;BME280;61637;47.760;-122.022;2023-06-05T08:28:01;102268.97799999999;;;8.2;unknown
73422;BME280;61637;47.760;-122.022;2023-06-05T08:30:01;102268.97799999999;;;8.2;unknown
73422;BME280;61637;47.760;-122.022;2023-06-05T08:32:01;102268.97799999999;;;8.2;unknown
73422;BME280;61637;47.760;-122.022;2023-06-05T08:34:01;102268.97799999999;;;8.2;unknown
73422;BME280;61637;47.760;-122.022;2023-06-05T08:36:01;102268.97799999999;;;8.1;unknown
73422;BME280;61637;47.760;-122.022;2023-06-05T08:38:02;102268.97799999999;;;8.1;unknown
73422;BME280;61637;47.760;-122.022;2023-06-05T08:40:01;102268.97799999999;;;8.1;unknown
73422;BME280;61637;47.760;-122.022;2023-06-05T08:42:01;102268.97799999999;;;8.1;unknown
73422;BME280;61637;47.760;-122.022;2023-06-05T08:44:01;102268.97799999999;;;8.1;unknown
73422;BME280;61637;47.760;-122.022;2023-06-05T08:46:01;102268.97799999999;;;8.0;unknown
73422;BME280;61637;47.760;-122.022;2023-06-05T08:48:01;102268.97799999999;;;8.0;unknown
73422;BME280;61637;47.760;-122.022;2023-06-05T08:50:02;102268.97799999999;;;8.0;unknown
73422;BME280;61637;47.760;-122.022;2023-06-05T08:52:01;102268.97799999999;;;7.9;unknown
73422;BME280;61637;47.760;-122.022;2023-06-05T08:54:02;102268.97799999999;;;7.9;unknown
73422;BME280;61637;47.760;-122.022;2023-06-05T08:56:01;102268.97799999999;;;7.9;unknown